Time;durP1;ratioP1;P1;durP2;ratioP2;P2;SDS_P1;SDS_P2;PMS_P1;PMS_P2;Temp;Humidity;BMP_temperature;BMP_pressure;BME280_temperature;BME280_humidity;BME280_pressure;Samples;Min_cycle;Max_cycle;Signal;HPM_P1;HPM_P2
2023/04/03 00:00:29;;;;;;;3.33;1.83;;;6.00;99.90;;;;;;5045801;28;20553;-70
2023/04/03 00:02:55;;;;;;;3.90;2.30;;;6.00;99.90;;;;;;5056663;28;20532;-69
2023/04/03 00:05:20;;;;;;;5.00;2.00;;;6.00;99.90;;;;;;5045896;28;20900;-70
2023/04/03 00:07:46;;;;;;;5.10;2.23;;;6.10;99.90;;;;;;5056875;28;20654;-69
2023/04/03 00:10:13;;;;;;;7.07;2.60;;;6.10;99.90;;;;;;5060957;28;20223;-71
2023/04/03 00:12:39;;;;;;;5.00;2.60;;;6.10;99.90;;;;;;5008991;28;20218;-69
2023/04/03 00:15:05;;;;;;;8.10;3.10;;;6.10;99.90;;;;;;4994958;28;20830;-70
2023/04/03 00:17:31;;;;;;;3.93;2.53;;;6.10;99.90;;;;;;5043671;28;20266;-70
2023/04/03 00:19:56;;;;;;;9.27;2.83;;;6.10;99.90;;;;;;5045258;28;20497;-69
2023/04/03 00:22:22;;;;;;;6.73;2.40;;;6.00;99.90;;;;;;5060076;28;20353;-70
2023/04/03 00:24:48;;;;;;;2.93;2.40;;;6.00;99.90;;;;;;5022362;28;20738;-70
2023/04/03 00:27:15;;;;;;;6.63;3.33;;;5.90;99.90;;;;;;4993190;28;20282;-69
2023/04/03 00:29:41;;;;;;;4.20;2.13;;;5.90;99.90;;;;;;5041925;28;20215;-70
2023/04/03 00:32:09;;;;;;;2.57;2.00;;;5.90;99.90;;;;;;5028324;28;20909;-69
2023/04/03 00:34:35;;;;;;;4.97;2.40;;;5.90;99.90;;;;;;5025085;28;20221;-69
2023/04/03 00:37:01;;;;;;;2.57;1.77;;;5.90;99.90;;;;;;5043858;28;20536;-67
2023/04/03 00:39:27;;;;;;;4.80;2.03;;;5.90;99.90;;;;;;5008642;28;20226;-70
2023/04/03 00:41:52;;;;;;;1.97;1.80;;;5.80;99.90;;;;;;5038546;28;20227;-69
2023/04/03 00:44:33;;;;;;;2.20;2.00;;;5.80;99.90;;;;;;5035508;28;20274;-69
2023/04/03 00:47:00;;;;;;;2.80;1.80;;;5.80;99.90;;;;;;5013514;28;20235;-69
2023/04/03 00:49:26;;;;;;;3.30;2.17;;;5.80;99.90;;;;;;5028739;28;20457;-70
2023/04/03 00:51:53;;;;;;;2.70;1.70;;;5.80;99.90;;;;;;5029194;28;20479;-69
2023/04/03 00:54:19;;;;;;;2.00;1.87;;;5.80;99.90;;;;;;5040931;28;20552;-68
2023/04/03 00:56:45;;;;;;;2.73;1.80;;;5.70;99.90;;;;;;5010151;28;20525;-70
2023/04/03 00:59:15;;;;;;;3.63;2.10;;;5.70;99.90;;;;;;5026249;28;20465;-69
2023/04/03 01:01:42;;;;;;;1.93;1.53;;;5.80;99.90;;;;;;5022281;28;20477;-69
2023/04/03 01:04:30;;;;;;;1.33;1.20;;;5.80;99.90;;;;;;5026833;28;20462;-69
2023/04/03 01:07:00;;;;;;;3.93;1.90;;;5.80;99.90;;;;;;5038545;28;20531;-69
2023/04/03 01:09:28;;;;;;;1.93;1.37;;;5.90;99.90;;;;;;5010280;28;20991;-70
2023/04/03 01:11:54;;;;;;;3.50;1.67;;;5.90;99.90;;;;;;5006424;28;20475;-71
2023/04/03 01:14:20;;;;;;;1.60;1.50;;;5.90;99.90;;;;;;5026818;28;20461;-69
2023/04/03 01:16:53;;;;;;;1.50;1.40;;;6.00;99.90;;;;;;5006784;28;20591;-70
2023/04/03 01:19:21;;;;;;;1.80;1.40;;;6.00;99.90;;;;;;5008980;28;20519;-69
2023/04/03 01:22:19;;;;;;;1.90;1.80;;;6.00;99.90;;;;;;5041833;28;20473;-70
2023/04/03 01:24:47;;;;;;;1.83;1.73;;;6.00;99.90;;;;;;5040668;28;20495;-70
2023/04/03 01:27:12;;;;;;;1.30;1.20;;;6.00;99.90;;;;;;5025836;28;20473;-69
2023/04/03 01:29:39;;;;;;;2.03;1.80;;;6.00;99.90;;;;;;5023597;28;20476;-69
2023/04/03 01:32:05;;;;;;;2.67;1.97;;;6.00;99.90;;;;;;5038883;28;20221;-69
2023/04/03 01:34:31;;;;;;;1.73;1.63;;;6.10;99.90;;;;;;5024636;28;20998;-70
2023/04/03 01:36:58;;;;;;;2.00;1.73;;;6.00;99.90;;;;;;4992902;28;20457;-70
2023/04/03 01:39:24;;;;;;;1.60;1.50;;;6.00;99.90;;;;;;5030464;28;20947;-69
2023/04/03 01:41:50;;;;;;;2.30;1.83;;;6.00;99.90;;;;;;5011778;28;20555;-69
2023/04/03 01:44:22;;;;;;;1.80;1.63;;;6.00;99.90;;;;;;5026004;28;20548;-69
2023/04/03 01:46:48;;;;;;;3.13;1.80;;;6.00;99.90;;;;;;5005704;28;20571;-70
2023/04/03 01:49:14;;;;;;;2.43;2.00;;;6.00;99.90;;;;;;5002370;28;20227;-68
2023/04/03 01:51:40;;;;;;;2.20;1.83;;;6.00;99.90;;;;;;5024094;28;20554;-68
2023/04/03 01:54:05;;;;;;;1.57;1.47;;;6.00;99.90;;;;;;5007229;28;20216;-70
2023/04/03 01:56:31;;;;;;;4.10;1.57;;;5.90;99.90;;;;;;5053241;28;20225;-69
2023/04/03 01:58:57;;;;;;;1.93;1.73;;;5.90;99.90;;;;;;5014210;28;20229;-70
2023/04/03 02:01:23;;;;;;;2.43;1.47;;;5.90;99.90;;;;;;5001200;28;20224;-70
2023/04/03 02:03:48;;;;;;;4.67;1.87;;;6.00;99.90;;;;;;5019448;28;20754;-70
2023/04/03 02:06:14;;;;;;;4.40;1.40;;;6.00;99.90;;;;;;5021416;28;20476;-70
2023/04/03 02:08:41;;;;;;;1.77;1.63;;;6.00;99.90;;;;;;5026563;28;20297;-69
2023/04/03 02:11:07;;;;;;;1.63;1.30;;;6.00;99.90;;;;;;5029841;28;20527;-70
2023/04/03 02:13:32;;;;;;;1.63;1.50;;;6.00;99.90;;;;;;5010586;28;20464;-70
2023/04/03 02:15:59;;;;;;;1.87;1.10;;;6.00;99.90;;;;;;5013669;28;20380;-69
2023/04/03 02:18:25;;;;;;;2.10;1.47;;;6.00;99.90;;;;;;5044296;28;20548;-69
2023/04/03 02:20:50;;;;;;;1.57;1.30;;;6.00;99.90;;;;;;5026621;28;20212;-69
2023/04/03 02:23:16;;;;;;;2.73;1.83;;;6.00;99.90;;;;;;5048247;28;20708;-71
2023/04/03 02:25:42;;;;;;;3.07;1.20;;;6.00;99.90;;;;;;5036865;28;20246;-69
2023/04/03 02:28:07;;;;;;;2.60;1.70;;;6.00;99.90;;;;;;5062393;28;20305;-69
2023/04/03 02:30:33;;;;;;;1.30;1.20;;;6.00;99.90;;;;;;5027398;28;20223;-69
2023/04/03 02:32:59;;;;;;;1.60;1.50;;;6.00;99.90;;;;;;5047627;28;20227;-70
2023/04/03 02:35:25;;;;;;;1.83;1.50;;;6.00;99.90;;;;;;5029727;28;20219;-69
2023/04/03 02:37:52;;;;;;;3.47;1.73;;;6.00;99.90;;;;;;5040537;28;20466;-68
2023/04/03 02:40:18;;;;;;;2.17;1.53;;;6.00;99.90;;;;;;5042615;28;20997;-68
2023/04/03 02:42:44;;;;;;;1.43;1.20;;;6.00;99.90;;;;;;5043320;28;20264;-68
2023/04/03 02:45:10;;;;;;;2.60;1.77;;;6.00;99.90;;;;;;5028517;28;20223;-70
2023/04/03 02:47:36;;;;;;;2.30;1.60;;;6.00;99.90;;;;;;5042006;28;20481;-69
2023/04/03 02:50:01;;;;;;;1.40;1.30;;;6.00;99.90;;;;;;5046044;28;20215;-70
2023/04/03 02:52:27;;;;;;;1.47;1.30;;;5.90;99.90;;;;;;5029208;28;20223;-70
2023/04/03 02:54:56;;;;;;;1.37;1.27;;;5.90;99.90;;;;;;5026003;28;20223;-69
2023/04/03 02:57:22;;;;;;;3.07;1.63;;;5.90;99.90;;;;;;5011396;28;20468;-71
2023/04/03 02:59:48;;;;;;;4.10;1.93;;;5.90;99.90;;;;;;5025472;28;20225;-71
2023/04/03 03:02:13;;;;;;;1.70;1.43;;;5.90;99.90;;;;;;5045797;28;20473;-68
2023/04/03 03:04:39;;;;;;;1.73;1.20;;;5.90;99.90;;;;;;5023447;28;20226;-70
2023/04/03 03:07:05;;;;;;;1.50;1.40;;;6.00;99.90;;;;;;5016308;28;20231;-69
2023/04/03 03:09:31;;;;;;;1.53;1.00;;;6.00;99.90;;;;;;4994501;28;20225;-69
2023/04/03 03:11:57;;;;;;;3.37;1.47;;;6.00;99.90;;;;;;5014212;28;20457;-69
2023/04/03 03:14:23;;;;;;;1.63;1.30;;;6.00;99.90;;;;;;5003216;28;20475;-70
2023/04/03 03:16:49;;;;;;;1.60;1.50;;;6.00;99.90;;;;;;5023693;28;20218;-70
2023/04/03 03:19:15;;;;;;;5.80;1.43;;;6.10;99.90;;;;;;5028692;28;20629;-69
2023/04/03 03:21:41;;;;;;;1.20;1.20;;;6.10;99.90;;;;;;5027816;28;20222;-70
2023/04/03 03:24:06;;;;;;;1.53;1.40;;;6.10;99.90;;;;;;5059755;28;20342;-70
2023/04/03 03:26:32;;;;;;;1.70;1.60;;;6.00;99.90;;;;;;5041413;28;20227;-69
2023/04/03 03:28:58;;;;;;;1.40;1.30;;;6.00;99.90;;;;;;5043868;28;20216;-70
2023/04/03 03:31:24;;;;;;;1.80;1.37;;;6.00;99.90;;;;;;5011440;28;20216;-69
2023/04/03 03:33:49;;;;;;;1.30;1.20;;;6.00;99.90;;;;;;5005325;28;20673;-69
2023/04/03 03:36:15;;;;;;;2.73;1.80;;;6.00;99.90;;;;;;5033897;28;20505;-70
2023/04/03 03:38:41;;;;;;;1.93;1.83;;;6.00;99.90;;;;;;5007066;28;20270;-69
2023/04/03 03:41:08;;;;;;;1.80;1.70;;;6.00;99.90;;;;;;4990733;28;20263;-69
2023/04/03 03:43:35;;;;;;;2.50;1.70;;;5.90;99.90;;;;;;5010049;28;20496;-69
2023/04/03 03:46:02;;;;;;;1.37;1.10;;;5.90;99.90;;;;;;5027411;28;20997;-70
2023/04/03 03:48:28;;;;;;;2.00;1.80;;;5.90;99.90;;;;;;5009016;28;20549;-69
2023/04/03 03:50:53;;;;;;;1.23;1.13;;;5.90;99.90;;;;;;5026057;28;20549;-69
2023/04/03 03:53:23;;;;;;;1.80;1.40;;;5.90;99.90;;;;;;5033502;28;20594;-70
2023/04/03 03:55:52;;;;;;;1.53;1.40;;;5.90;99.90;;;;;;5025765;28;20519;-70
2023/04/03 03:58:20;;;;;;;1.20;1.13;;;5.90;99.90;;;;;;4997040;28;20466;-70
2023/04/03 04:00:46;;;;;;;2.17;1.13;;;5.80;99.90;;;;;;5002759;28;20473;-70
2023/04/03 04:03:12;;;;;;;6.70;1.70;;;5.80;99.90;;;;;;5023246;28;20505;-69
2023/04/03 04:05:39;;;;;;;2.00;1.20;;;5.70;99.90;;;;;;5030083;28;20484;-69
2023/04/03 04:08:05;;;;;;;2.60;1.20;;;5.70;99.90;;;;;;5006669;28;20463;-69
2023/04/03 04:10:30;;;;;;;2.33;1.43;;;5.70;99.90;;;;;;5025941;28;20273;-68
2023/04/03 04:12:57;;;;;;;2.00;1.37;;;5.70;99.90;;;;;;5014504;28;20550;-69
2023/04/03 04:15:25;;;;;;;2.27;1.30;;;5.70;99.90;;;;;;5027412;28;20481;-71
2023/04/03 04:17:52;;;;;;;1.43;1.30;;;5.70;99.90;;;;;;5023804;28;20489;-70
2023/04/03 04:20:18;;;;;;;1.80;1.40;;;5.60;99.90;;;;;;5028528;28;20469;-70
2023/04/03 04:22:46;;;;;;;1.27;1.17;;;5.50;99.90;;;;;;5024697;28;20465;-70
2023/04/03 04:25:12;;;;;;;1.23;1.03;;;5.50;99.90;;;;;;5011493;28;20442;-70
2023/04/03 04:27:39;;;;;;;7.50;1.83;;;5.50;99.90;;;;;;5006861;28;20477;-69
2023/04/03 04:30:06;;;;;;;1.27;1.20;;;5.50;99.90;;;;;;5009972;28;20464;-70
2023/04/03 04:32:32;;;;;;;1.83;1.10;;;5.50;99.90;;;;;;5056690;28;20498;-70
2023/04/03 04:34:58;;;;;;;1.43;1.30;;;5.50;99.90;;;;;;5017421;28;20460;-70
2023/04/03 04:37:25;;;;;;;1.17;1.03;;;5.50;99.90;;;;;;5028864;28;20472;-70
2023/04/03 04:39:52;;;;;;;1.23;1.10;;;5.30;99.90;;;;;;5023154;28;20493;-69
2023/04/03 04:42:17;;;;;;;2.70;0.90;;;5.40;99.90;;;;;;5022076;28;20499;-68
2023/04/03 04:44:45;;;;;;;4.47;1.20;;;5.40;99.90;;;;;;5023729;28;20739;-70
2023/04/03 04:47:12;;;;;;;3.37;0.80;;;5.30;99.90;;;;;;5021317;28;20482;-69
2023/04/03 04:49:37;;;;;;;4.83;1.40;;;5.30;99.90;;;;;;5010781;28;20560;-69
2023/04/03 04:52:04;;;;;;;1.27;1.10;;;5.30;99.90;;;;;;5036220;28;20218;-69
2023/04/03 04:54:31;;;;;;;1.40;1.03;;;5.20;99.90;;;;;;5015732;28;20222;-69
2023/04/03 04:56:57;;;;;;;1.20;1.10;;;5.20;99.90;;;;;;5032603;28;20468;-68
2023/04/03 04:59:23;;;;;;;1.53;1.00;;;5.20;99.90;;;;;;5033824;28;20469;-67
2023/04/03 05:01:50;;;;;;;4.70;1.83;;;5.20;99.90;;;;;;5026257;28;20476;-68
2023/04/03 05:04:17;;;;;;;2.77;0.83;;;5.10;99.90;;;;;;5029654;28;20544;-70
2023/04/03 05:06:46;;;;;;;4.70;1.70;;;5.10;99.90;;;;;;5033200;28;20535;-69
2023/04/03 05:09:16;;;;;;;3.73;1.30;;;5.10;99.90;;;;;;5014117;28;20454;-68
2023/04/03 05:11:44;;;;;;;2.73;1.20;;;5.10;99.90;;;;;;5002066;28;21035;-68
2023/04/03 05:14:10;;;;;;;3.03;0.97;;;5.10;99.90;;;;;;4990774;28;20454;-67
2023/04/03 05:16:36;;;;;;;2.97;1.83;;;5.10;99.90;;;;;;5010860;28;20474;-67
2023/04/03 05:19:02;;;;;;;1.50;0.80;;;5.10;99.90;;;;;;5043361;28;20223;-67
2023/04/03 05:21:31;;;;;;;2.47;1.23;;;5.00;99.90;;;;;;5027002;28;20247;-67
2023/04/03 05:24:02;;;;;;;1.20;1.10;;;5.00;99.90;;;;;;4995141;28;20512;-68
2023/04/03 05:26:30;;;;;;;2.83;1.00;;;4.90;99.90;;;;;;5015146;28;20476;-68
2023/04/03 05:28:56;;;;;;;2.87;1.20;;;4.90;99.90;;;;;;5012669;28;20449;-69
2023/04/03 05:31:22;;;;;;;4.87;1.17;;;4.80;99.90;;;;;;5021390;28;20515;-69
2023/04/03 05:33:48;;;;;;;1.67;1.07;;;4.90;99.90;;;;;;5021675;28;20214;-69
2023/04/03 05:36:17;;;;;;;2.53;1.07;;;4.80;99.90;;;;;;5020436;28;20469;-69
2023/04/03 05:38:46;;;;;;;2.80;1.17;;;4.80;99.90;;;;;;5015814;28;20457;-67
2023/04/03 05:41:12;;;;;;;1.20;1.10;;;4.70;99.90;;;;;;5026331;28;20455;-69
2023/04/03 05:43:38;;;;;;;1.83;1.30;;;4.70;99.90;;;;;;5019313;28;20211;-69
2023/04/03 05:46:14;;;;;;;7.33;2.30;;;4.70;99.90;;;;;;5021773;28;20620;-67
2023/04/03 05:48:42;;;;;;;1.73;1.63;;;4.70;99.90;;;;;;5022034;28;20552;-69
2023/04/03 05:51:22;;;;;;;1.40;1.30;;;4.80;99.90;;;;;;5009834;28;20465;-69
2023/04/03 05:53:56;;;;;;;1.53;1.20;;;4.80;99.90;;;;;;5037003;28;20481;-69
2023/04/03 05:56:21;;;;;;;2.30;1.20;;;4.80;99.90;;;;;;5024914;28;20508;-69
2023/04/03 05:58:47;;;;;;;2.90;1.40;;;4.70;99.90;;;;;;5020549;28;20484;-67
2023/04/03 06:01:13;;;;;;;4.13;2.00;;;4.80;99.90;;;;;;5020169;28;20266;-68
2023/04/03 06:03:40;;;;;;;2.20;1.37;;;4.80;99.90;;;;;;5017464;28;20218;-69
2023/04/03 06:06:07;;;;;;;2.60;1.70;;;4.80;99.90;;;;;;5005754;28;20832;-69
2023/04/03 06:08:34;;;;;;;2.23;1.47;;;4.80;99.90;;;;;;5020343;28;20455;-69
2023/04/03 06:11:00;;;;;;;0.80;0.80;;;4.80;99.90;;;;;;5008347;28;20548;-69
2023/04/03 06:13:28;;;;;;;0.87;0.87;;;4.80;99.90;;;;;;5043772;28;20468;-68
2023/04/03 06:15:54;;;;;;;0.90;0.90;;;4.70;99.90;;;;;;5012978;28;20450;-69
2023/04/03 06:18:20;;;;;;;3.33;1.50;;;4.70;99.90;;;;;;5020838;28;20970;-68
2023/04/03 06:20:46;;;;;;;1.20;1.13;;;4.70;99.90;;;;;;5022624;28;20214;-68
2023/04/03 06:23:11;;;;;;;7.43;1.57;;;4.70;99.90;;;;;;5013789;28;20450;-70
2023/04/03 06:25:37;;;;;;;1.30;1.20;;;4.70;99.90;;;;;;5018205;28;20590;-69
2023/04/03 06:28:03;;;;;;;2.00;1.60;;;4.60;99.90;;;;;;5025307;28;20250;-70
2023/04/03 06:30:28;;;;;;;2.43;1.63;;;4.60;99.90;;;;;;5041567;28;20223;-69
2023/04/03 06:32:55;;;;;;;2.87;1.53;;;4.70;99.90;;;;;;5016550;28;20564;-67
2023/04/03 06:35:23;;;;;;;1.40;1.20;;;4.70;99.90;;;;;;5021080;28;20243;-69
2023/04/03 06:37:49;;;;;;;2.10;1.60;;;4.70;99.90;;;;;;5021183;28;20559;-69
2023/04/03 06:40:23;;;;;;;1.37;1.27;;;4.70;99.90;;;;;;5017510;28;21090;-68
2023/04/03 06:42:49;;;;;;;1.13;1.03;;;4.70;99.90;;;;;;5020767;28;20246;-70
2023/04/03 06:45:17;;;;;;;1.47;1.37;;;4.70;99.90;;;;;;5017475;28;21222;-69
2023/04/03 06:47:43;;;;;;;1.70;1.50;;;4.70;99.90;;;;;;5030566;28;20488;-69
2023/04/03 06:50:11;;;;;;;1.53;1.40;;;4.70;99.90;;;;;;5024657;28;20457;-69
2023/04/03 06:52:37;;;;;;;3.30;1.90;;;4.70;99.90;;;;;;5029943;28;20226;-69
2023/04/03 06:55:03;;;;;;;1.37;1.00;;;4.60;99.90;;;;;;5010360;28;20454;-70
2023/04/03 06:57:29;;;;;;;4.30;1.30;;;4.70;99.90;;;;;;5017887;28;20340;-68
2023/04/03 06:59:55;;;;;;;4.27;1.80;;;4.70;99.90;;;;;;5005372;28;21002;-70
2023/04/03 07:02:21;;;;;;;3.13;1.67;;;4.70;99.90;;;;;;5017480;28;20481;-69
2023/04/03 07:04:47;;;;;;;4.50;1.13;;;4.70;99.90;;;;;;5025245;28;20215;-70
2023/04/03 07:07:13;;;;;;;2.33;1.67;;;4.70;99.90;;;;;;5010661;28;20260;-69
2023/04/03 07:09:38;;;;;;;3.00;1.67;;;4.70;99.90;;;;;;5017820;28;20893;-70
2023/04/03 07:12:05;;;;;;;2.27;1.50;;;4.70;99.90;;;;;;5045446;28;20739;-70
2023/04/03 07:14:30;;;;;;;1.47;1.30;;;4.70;99.90;;;;;;5026725;28;20223;-69
2023/04/03 07:16:56;;;;;;;2.30;1.70;;;4.80;99.90;;;;;;5025222;28;20549;-69
2023/04/03 07:19:24;;;;;;;2.93;1.40;;;4.90;99.90;;;;;;5045795;28;20221;-69
2023/04/03 07:21:50;;;;;;;5.17;2.20;;;4.90;99.90;;;;;;5038042;28;20245;-69
2023/04/03 07:24:15;;;;;;;6.13;2.33;;;5.00;99.90;;;;;;5029218;28;20508;-69
2023/04/03 07:26:41;;;;;;;1.60;1.33;;;5.00;99.90;;;;;;5016495;28;20482;-69
2023/04/03 07:29:07;;;;;;;2.20;1.60;;;5.00;99.90;;;;;;5017041;28;20219;-70
2023/04/03 07:31:33;;;;;;;4.60;1.70;;;5.20;99.90;;;;;;5028060;28;20219;-68
2023/04/03 07:33:59;;;;;;;1.20;1.10;;;5.20;99.90;;;;;;5024316;28;20227;-69
2023/04/03 07:36:25;;;;;;;2.07;1.80;;;5.20;99.90;;;;;;5022692;28;20603;-70
2023/04/03 07:38:51;;;;;;;2.40;1.80;;;5.30;99.90;;;;;;5021945;28;20465;-70
2023/04/03 07:41:19;;;;;;;2.27;1.90;;;5.30;99.90;;;;;;5014321;28;20688;-69
2023/04/03 07:43:46;;;;;;;3.30;1.90;;;5.40;99.90;;;;;;5016589;28;20217;-69
2023/04/03 07:46:12;;;;;;;2.23;2.00;;;5.40;99.90;;;;;;5024001;28;20570;-69
2023/04/03 07:48:38;;;;;;;2.87;1.90;;;5.60;99.90;;;;;;5014263;28;20477;-69
2023/04/03 07:51:05;;;;;;;2.20;1.80;;;5.50;99.90;;;;;;5005577;28;20461;-69
2023/04/03 07:53:31;;;;;;;2.23;2.00;;;5.40;99.90;;;;;;5025876;28;20269;-70
2023/04/03 07:55:58;;;;;;;5.07;1.70;;;5.40;99.90;;;;;;5041632;28;20461;-69
2023/04/03 07:58:25;;;;;;;2.00;1.77;;;5.40;99.90;;;;;;5027526;28;20476;-71
2023/04/03 08:00:51;;;;;;;2.10;1.73;;;5.50;99.90;;;;;;5015346;28;21121;-67
2023/04/03 08:03:17;;;;;;;3.77;1.43;;;5.50;99.90;;;;;;5024152;28;20474;-69
2023/04/03 08:05:47;;;;;;;2.60;1.50;;;5.50;99.90;;;;;;5006844;28;20230;-68
2023/04/03 08:08:16;;;;;;;2.20;1.50;;;5.60;99.90;;;;;;5026261;28;20477;-70
2023/04/03 08:10:42;;;;;;;2.20;1.40;;;5.70;99.90;;;;;;5042201;28;20474;-69
2023/04/03 08:13:08;;;;;;;3.40;1.70;;;5.80;99.90;;;;;;5039537;28;20502;-69
2023/04/03 08:15:34;;;;;;;1.63;1.47;;;5.80;99.90;;;;;;5035848;28;20501;-68
2023/04/03 08:18:00;;;;;;;1.40;1.30;;;5.70;99.90;;;;;;5021853;28;20471;-67
2023/04/03 08:20:27;;;;;;;3.47;1.53;;;5.80;99.90;;;;;;5002094;28;20531;-68
2023/04/03 08:22:53;;;;;;;1.50;1.40;;;6.00;99.90;;;;;;5034675;28;20453;-67
2023/04/03 08:25:19;;;;;;;2.13;1.87;;;6.00;99.90;;;;;;5002867;28;20898;-69
2023/04/03 08:27:45;;;;;;;2.77;1.80;;;5.90;99.90;;;;;;5030614;28;20288;-68
2023/04/03 08:30:11;;;;;;;3.93;1.83;;;5.80;99.90;;;;;;5035060;28;20230;-69
2023/04/03 08:32:37;;;;;;;2.27;1.73;;;5.70;99.90;;;;;;5021630;28;20321;-68
2023/04/03 08:35:04;;;;;;;2.10;1.63;;;5.80;99.90;;;;;;5008366;28;20469;-69
2023/04/03 08:37:30;;;;;;;2.60;1.60;;;5.90;99.90;;;;;;5025472;28;20932;-68
2023/04/03 08:39:56;;;;;;;4.83;2.43;;;5.90;99.90;;;;;;5021140;28;20467;-70
2023/04/03 08:42:55;;;;;;;2.10;1.90;;;5.90;99.90;;;;;;5005520;28;20499;-69
2023/04/03 08:45:42;;;;;;;3.03;1.90;;;5.90;99.90;;;;;;5023763;28;20255;-70
2023/04/03 08:48:23;;;;;;;1.47;1.37;;;6.00;99.90;;;;;;5022682;28;20820;-70
2023/04/03 08:50:56;;;;;;;4.50;2.10;;;6.00;99.90;;;;;;5003022;28;20541;-70
2023/04/03 08:53:28;;;;;;;2.50;1.90;;;6.00;99.90;;;;;;5015856;28;20462;-70
2023/04/03 08:55:55;;;;;;;2.87;1.40;;;6.10;99.90;;;;;;5018848;28;20512;-68
2023/04/03 08:58:36;;;;;;;3.37;1.80;;;6.10;99.90;;;;;;5018165;28;20473;-69
2023/04/03 09:01:05;;;;;;;1.63;1.40;;;6.10;99.90;;;;;;5025662;28;20552;-70
2023/04/03 09:03:41;;;;;;;3.80;2.23;;;6.20;99.90;;;;;;5028572;28;21004;-69
2023/04/03 09:06:13;;;;;;;4.10;1.90;;;6.30;99.90;;;;;;5009448;28;20473;-69
2023/04/03 09:08:48;;;;;;;2.67;2.03;;;6.30;99.90;;;;;;5006797;28;20493;-71
2023/04/03 09:11:38;;;;;;;2.80;1.90;;;6.30;99.90;;;;;;5021759;28;20811;-69
2023/04/03 09:14:14;;;;;;;2.60;2.10;;;6.30;99.90;;;;;;5043744;28;20453;-69
2023/04/03 09:16:56;;;;;;;2.00;1.43;;;6.30;99.90;;;;;;5016947;28;20477;-68
2023/04/03 09:19:24;;;;;;;1.60;1.50;;;6.40;99.90;;;;;;5042135;28;20476;-70
2023/04/03 09:21:50;;;;;;;5.90;1.93;;;6.30;99.90;;;;;;5010341;28;20556;-69
2023/04/03 09:24:17;;;;;;;1.40;1.30;;;6.40;99.90;;;;;;5033580;28;20554;-68
2023/04/03 09:26:51;;;;;;;2.80;1.97;;;6.60;99.90;;;;;;5029649;28;20218;-69
2023/04/03 09:29:22;;;;;;;2.17;1.87;;;6.60;99.90;;;;;;5014224;28;20456;-70
2023/04/03 09:32:30;;;;;;;1.93;1.70;;;6.90;99.90;;;;;;5000319;28;20472;-69
2023/04/03 09:35:03;;;;;;;2.90;1.60;;;6.80;99.90;;;;;;4998873;28;20462;-69
2023/04/03 09:37:37;;;;;;;2.17;2.00;;;6.60;99.90;;;;;;5013621;28;20473;-68
2023/04/03 09:40:04;;;;;;;3.33;2.00;;;6.50;99.90;;;;;;5020717;28;20458;-70
2023/04/03 09:42:33;;;;;;;2.80;1.87;;;6.60;99.90;;;;;;5021768;28;20456;-70
2023/04/03 09:45:05;;;;;;;3.53;1.97;;;6.60;99.90;;;;;;5009166;28;20654;-69
2023/04/03 09:47:33;;;;;;;2.90;1.67;;;6.60;99.90;;;;;;5024129;28;20478;-69
2023/04/03 09:50:14;;;;;;;1.37;1.27;;;6.70;99.90;;;;;;5003241;28;20536;-69
2023/04/03 09:52:47;;;;;;;3.13;2.03;;;6.80;99.90;;;;;;5022942;28;20464;-68
2023/04/03 09:55:18;;;;;;;2.30;1.97;;;6.80;99.90;;;;;;5021329;28;20473;-70
2023/04/03 09:57:49;;;;;;;2.97;1.70;;;6.90;99.90;;;;;;5043764;28;20473;-69
2023/04/03 10:00:39;;;;;;;1.87;1.57;;;6.70;99.90;;;;;;5028383;28;20566;-69
2023/04/03 10:03:26;;;;;;;2.97;1.80;;;6.70;99.90;;;;;;5008709;28;20469;-70
2023/04/03 10:05:54;;;;;;;5.43;2.07;;;6.80;99.90;;;;;;5030981;28;20480;-70
2023/04/03 10:08:24;;;;;;;2.10;1.87;;;6.80;99.90;;;;;;5019566;28;20493;-70
2023/04/03 10:11:13;;;;;;;1.80;1.70;;;6.80;99.90;;;;;;5046505;28;20464;-70
2023/04/03 10:14:16;;;;;;;2.33;1.63;;;6.90;99.90;;;;;;5026215;28;20974;-69
2023/04/03 10:16:48;;;;;;;3.93;1.73;;;6.70;99.90;;;;;;5038438;28;20550;-69
2023/04/03 10:19:28;;;;;;;2.07;1.87;;;6.60;99.90;;;;;;5048735;28;20465;-69
2023/04/03 10:22:08;;;;;;;1.80;1.70;;;6.90;99.90;;;;;;5022726;28;21082;-67
2023/04/03 10:24:56;;;;;;;3.37;1.50;;;7.00;99.90;;;;;;5047946;28;20476;-69
2023/04/03 10:27:53;;;;;;;6.27;1.80;;;6.90;99.90;;;;;;4991591;28;20489;-69
2023/04/03 10:30:27;;;;;;;2.77;1.63;;;6.80;99.90;;;;;;5037451;28;20480;-69
2023/04/03 10:33:14;;;;;;;1.70;1.60;;;6.90;99.90;;;;;;5023743;28;20465;-69
2023/04/03 10:36:02;;;;;;;2.60;2.00;;;6.80;99.90;;;;;;5025829;28;20475;-69
2023/04/03 10:39:03;;;;;;;2.30;2.10;;;6.90;99.90;;;;;;5024376;28;20470;-69
2023/04/03 10:41:49;;;;;;;2.47;2.00;;;6.90;99.90;;;;;;4997150;28;20530;-70
2023/04/03 10:44:32;;;;;;;3.80;2.50;;;6.80;99.90;;;;;;5028766;28;20461;-71
2023/04/03 10:47:09;;;;;;;4.03;2.50;;;6.80;99.90;;;;;;5037033;28;20477;-68
2023/04/03 10:49:50;;;;;;;3.50;2.80;;;6.80;99.90;;;;;;5022976;28;20523;-69
2023/04/03 10:52:52;;;;;;;5.47;1.90;;;6.80;99.90;;;;;;5020735;28;20492;-69
2023/04/03 10:55:41;;;;;;;2.03;1.80;;;6.80;99.90;;;;;;4996503;28;20547;-70
2023/04/03 10:58:32;;;;;;;2.20;2.00;;;6.80;99.90;;;;;;5027583;28;20477;-70
2023/04/03 11:01:07;;;;;;;4.77;1.97;;;6.90;99.90;;;;;;5030258;28;20625;-70
2023/04/03 11:03:40;;;;;;;2.90;2.60;;;6.90;99.90;;;;;;5030804;28;20465;-70
2023/04/03 11:06:09;;;;;;;2.97;2.20;;;6.90;99.90;;;;;;5026810;28;20477;-69
2023/04/03 11:08:39;;;;;;;2.53;1.83;;;7.00;99.90;;;;;;5024881;28;20457;-69
2023/04/03 11:11:25;;;;;;;2.40;2.03;;;7.10;99.90;;;;;;5037088;28;20452;-70
2023/04/03 11:14:15;;;;;;;3.43;2.17;;;7.10;99.90;;;;;;5018485;28;20457;-70
2023/04/03 11:16:46;;;;;;;2.67;2.47;;;7.10;99.90;;;;;;5046639;28;20610;-69
2023/04/03 11:19:21;;;;;;;3.10;2.30;;;7.10;99.90;;;;;;5051178;28;20468;-70
2023/04/03 11:21:56;;;;;;;3.47;2.07;;;7.20;99.90;;;;;;5015829;28;20469;-70
2023/04/03 11:24:26;;;;;;;2.70;1.83;;;7.20;99.90;;;;;;5043867;28;20615;-69
2023/04/03 11:26:54;;;;;;;1.50;1.40;;;7.20;99.90;;;;;;5031275;28;20485;-69
2023/04/03 11:29:24;;;;;;;2.13;1.87;;;7.30;99.90;;;;;;5026141;28;20469;-70
2023/04/03 11:32:27;;;;;;;2.37;1.70;;;7.20;99.90;;;;;;5027487;28;20469;-70
2023/04/03 11:34:56;;;;;;;3.30;2.10;;;7.20;99.90;;;;;;5037839;28;21052;-70
2023/04/03 11:37:33;;;;;;;2.80;2.60;;;7.30;99.90;;;;;;5021327;28;20847;-70
2023/04/03 11:40:09;;;;;;;2.20;1.50;;;7.30;99.90;;;;;;5052460;28;20459;-71
2023/04/03 11:42:38;;;;;;;2.30;1.70;;;7.20;99.90;;;;;;5039348;28;20453;-69
2023/04/03 11:45:26;;;;;;;2.40;1.70;;;7.20;99.90;;;;;;4998278;28;20451;-70
2023/04/03 11:47:54;;;;;;;2.60;1.67;;;7.30;99.90;;;;;;5045736;28;20995;-70
2023/04/03 11:50:34;;;;;;;1.97;1.80;;;7.30;99.90;;;;;;5050586;28;20468;-71
2023/04/03 11:53:39;;;;;;;8.03;1.97;;;7.40;99.90;;;;;;5030247;28;20979;-70
2023/04/03 11:56:27;;;;;;;2.60;2.03;;;7.50;99.90;;;;;;5031310;28;20468;-70
2023/04/03 11:59:12;;;;;;;3.17;1.87;;;7.50;99.90;;;;;;5048009;28;20465;-69
2023/04/03 12:01:52;;;;;;;3.03;2.47;;;7.60;99.90;;;;;;5047060;28;20552;-71
2023/04/03 12:04:20;;;;;;;4.20;1.63;;;7.50;99.90;;;;;;5045921;28;20484;-69
2023/04/03 12:06:46;;;;;;;3.80;1.90;;;7.60;99.90;;;;;;5046113;28;20562;-67
2023/04/03 12:09:40;;;;;;;1.90;1.80;;;7.60;99.90;;;;;;5017533;28;20458;-70
2023/04/03 12:12:24;;;;;;;2.10;1.70;;;7.50;99.90;;;;;;5059626;28;20450;-70
2023/04/03 12:14:51;;;;;;;3.33;2.10;;;7.50;99.90;;;;;;5029371;28;20483;-70
2023/04/03 12:17:27;;;;;;;2.63;2.00;;;7.50;99.90;;;;;;5047800;28;20493;-70
2023/04/03 12:19:52;;;;;;;2.30;2.10;;;7.50;99.90;;;;;;5027960;28;20511;-68
2023/04/03 12:22:20;;;;;;;3.07;2.50;;;7.60;99.90;;;;;;5030330;28;20817;-69
2023/04/03 12:24:53;;;;;;;2.43;2.33;;;7.70;99.90;;;;;;5014367;28;20215;-70
2023/04/03 12:27:41;;;;;;;2.20;2.00;;;7.60;99.90;;;;;;5045455;28;20486;-70
2023/04/03 12:30:18;;;;;;;5.67;3.07;;;7.60;99.90;;;;;;5018352;28;20460;-69
2023/04/03 12:32:56;;;;;;;2.70;2.17;;;7.60;99.90;;;;;;5024036;28;20468;-69
2023/04/03 12:35:31;;;;;;;7.57;2.60;;;7.50;99.90;;;;;;5018426;28;20463;-68
2023/04/03 12:38:34;;;;;;;2.83;2.50;;;7.50;99.90;;;;;;5023165;28;20456;-68
2023/04/03 12:41:17;;;;;;;2.60;1.90;;;7.70;99.90;;;;;;5049107;28;20461;-69
2023/04/03 12:44:25;;;;;;;2.50;2.23;;;7.70;99.90;;;;;;5028977;28;20476;-69
2023/04/03 12:46:53;;;;;;;2.50;2.30;;;7.70;99.90;;;;;;5020285;28;20470;-68
2023/04/03 12:49:41;;;;;;;2.63;2.20;;;7.70;99.90;;;;;;5030804;28;20462;-69
2023/04/03 12:52:45;;;;;;;2.07;1.77;;;7.70;99.90;;;;;;5044859;28;20454;-69
2023/04/03 12:55:20;;;;;;;2.93;2.53;;;7.80;99.90;;;;;;5008765;28;20469;-68
2023/04/03 12:57:47;;;;;;;2.47;2.20;;;7.90;99.90;;;;;;5021571;28;20496;-68
2023/04/03 13:00:39;;;;;;;1.93;1.83;;;7.90;99.90;;;;;;5016764;28;20459;-69
2023/04/03 13:03:14;;;;;;;3.13;2.23;;;7.90;99.90;;;;;;5044066;28;20860;-69
2023/04/03 13:05:43;;;;;;;3.57;2.10;;;7.90;99.90;;;;;;5028610;28;20463;-68
2023/04/03 13:08:15;;;;;;;2.97;1.77;;;7.80;99.90;;;;;;5043245;28;20500;-70
2023/04/03 13:10:53;;;;;;;3.63;1.90;;;7.90;99.90;;;;;;5020446;28;20495;-69
2023/04/03 13:13:18;;;;;;;4.60;2.30;;;7.90;99.90;;;;;;5040462;28;20533;-70
2023/04/03 13:15:48;;;;;;;3.90;2.30;;;7.90;99.90;;;;;;5039386;28;20467;-70